Terminal Aerodrome Forecast
Issued by NWS Nashville, TN

Home | Current Version | Previous Version | Text Only | Print | Product List | Glossary On
Versions: 1 2 3 4 5 6 7 8 9 10 11 12 13 14 15 16 17
000
FTUS44 KOHX 021700
TAFCSV
TAF
KCSV 021723Z 0218/0318 36009KT P6SM OVC012
      TEMPO 0218/0220 P6SM OVC006
     FM022000 04005KT P6SM BKN040
     FM030200 12004KT 5SM BR VCSH OVC015
     FM030900 VRB03KT 4SM BR VCSH OVC006
     FM031200 17006KT 3SM -SHRA BR OVC006=

USA.gov is the U.S. government's official web portal to all federal, state and local government web resources and services.